Hhl Amur — D5CV2 — position and weather

sailwx.info

Track history (hours):
 
Tides and Currents Weather Stations Pressure Air Temp Water Temp Dewpoint Dewpoint Depression Visibility Wind Speed Wind Dir Waves Ship Positions

Hhl Amur

Last reported at 2017-Nov-19 14:50 UTC. Time now 2017-Nov-23 15:09 UTC.
Position N 11°07' W 074°59'.

Length 138 m; draft 7.4 m.

Type: Ship. MMSI: 636092457.

Date/timePositionNaut miles runAvg speedWind from/ knotsBaromVisibWave heightAir tempDewpointWater temp
2017-Nov-19 14:50N 11°07' W 074°59'410.9
2017-Nov-19 14:29N 11°08' W 074°55'5 9.9
2017-Nov-19 14:00N 11°05' W 074°51'8 1.0
2017-Nov-19 05:59N 10°59' W 074°45'0 0.0
2017-Nov-19 05:23N 10°59' W 074°45'0 0.0
2017-Nov-19 04:59N 10°59' W 074°45'0 0.0
2017-Nov-19 04:29N 10°59' W 074°45'0 0.0
2017-Nov-19 01:59N 10°59' W 074°45'0 0.0
2017-Nov-18 20:53N 10°59' W 074°45'0 0.0
2017-Nov-18 08:17N 10°59' W 074°45'0 0.0
2017-Nov-18 07:53N 10°59' W 074°45'0 0.0
2017-Nov-17 18:23N 10°59' W 074°45'0 0.0
2017-Nov-17 17:53N 10°59' W 074°45'0 0.0
2017-Nov-17 17:29N 10°59' W 074°45'0 0.0
2017-Nov-17 16:53N 10°59' W 074°45'4 4.2
2017-Nov-17 15:58N 11°02' W 074°48'4 7.9
2017-Nov-17 15:30N 11°04' W 074°51'4 7.4
2017-Nov-17 14:59N 11°07' W 074°54'1 1.7
2017-Nov-17 14:26N 11°07' W 074°53'3 6.3
2017-Nov-17 14:00N 11°09' W 074°52'  
2017-Nov-15 01:14N 16°22' W 062°23'512.4
2017-Nov-15 00:49N 16°24' W 062°18'412.4
2017-Nov-15 00:30N 16°25' W 062°15'612.5
2017-Nov-15 00:00N 16°27' W 062°08'612.4
2017-Nov-14 23:30N 16°29' W 062°02'612.1
2017-Nov-14 23:00N 16°32' W 061°57'612.2
2017-Nov-14 22:30N 16°35' W 061°51'612.1
2017-Nov-14 22:00N 16°38' W 061°46'612.1
2017-Nov-14 21:30N 16°41' W 061°40'612.3
2017-Nov-14 21:00N 16°45' W 061°35'612.5
2017-Nov-14 20:30N 16°48' W 061°29'612.8
2017-Nov-14 20:00N 16°51' W 061°24'612.6
2017-Nov-14 19:30N 16°55' W 061°18'612.4
2017-Nov-14 19:00N 16°58' W 061°13'612.2
2017-Nov-14 18:30N 17°01' W 061°07'612.2
2017-Nov-14 18:00N 17°04' W 061°02'  
Track history (hours):
 
Tides and Currents Weather Stations Pressure Air Temp Water Temp Dewpoint Dewpoint Depression Visibility Wind Speed Wind Dir Waves Ship Positions

Hhl Amur

Last reported at 2017-Nov-19 14:50 UTC. Time now 2017-Nov-23 15:09 UTC.
Position N 11°07' W 074°59'.

Length 138 m; draft 7.4 m.

Type: Ship. MMSI: 636092457.

Date/timePositionNaut miles runAvg speedWind from/ knotsBaromVisibWave heightAir tempDewpointWater temp
2017-Nov-19 14:50N 11°07' W 074°59'410.9
2017-Nov-19 14:29N 11°08' W 074°55'5 9.9
2017-Nov-19 14:00N 11°05' W 074°51'8 1.0
2017-Nov-19 05:59N 10°59' W 074°45'0 0.0
2017-Nov-19 05:23N 10°59' W 074°45'0 0.0
2017-Nov-19 04:59N 10°59' W 074°45'0 0.0
2017-Nov-19 04:29N 10°59' W 074°45'0 0.0
2017-Nov-19 01:59N 10°59' W 074°45'0 0.0
2017-Nov-18 20:53N 10°59' W 074°45'0 0.0
2017-Nov-18 08:17N 10°59' W 074°45'0 0.0
2017-Nov-18 07:53N 10°59' W 074°45'0 0.0
2017-Nov-17 18:23N 10°59' W 074°45'0 0.0
2017-Nov-17 17:53N 10°59' W 074°45'0 0.0
2017-Nov-17 17:29N 10°59' W 074°45'0 0.0
2017-Nov-17 16:53N 10°59' W 074°45'4 4.2
2017-Nov-17 15:58N 11°02' W 074°48'4 7.9
2017-Nov-17 15:30N 11°04' W 074°51'4 7.4
2017-Nov-17 14:59N 11°07' W 074°54'1 1.7
2017-Nov-17 14:26N 11°07' W 074°53'3 6.3
2017-Nov-17 14:00N 11°09' W 074°52'  
2017-Nov-15 01:14N 16°22' W 062°23'512.4
2017-Nov-15 00:49N 16°24' W 062°18'412.4
2017-Nov-15 00:30N 16°25' W 062°15'612.5
2017-Nov-15 00:00N 16°27' W 062°08'612.4
2017-Nov-14 23:30N 16°29' W 062°02'612.1
2017-Nov-14 23:00N 16°32' W 061°57'612.2
2017-Nov-14 22:30N 16°35' W 061°51'612.1
2017-Nov-14 22:00N 16°38' W 061°46'612.1
2017-Nov-14 21:30N 16°41' W 061°40'612.3
2017-Nov-14 21:00N 16°45' W 061°35'612.5
2017-Nov-14 20:30N 16°48' W 061°29'612.8
2017-Nov-14 20:00N 16°51' W 061°24'612.6
2017-Nov-14 19:30N 16°55' W 061°18'612.4
2017-Nov-14 19:00N 16°58' W 061°13'612.2
2017-Nov-14 18:30N 17°01' W 061°07'612.2
2017-Nov-14 18:00N 17°04' W 061°02'  

Dump ship's entire track history